sensor_id;sensor_type;location;lat;lon;timestamp;pressure;altitude;pressure_sealevel;temperature;humidity
78888;BME280;68276;49.326;8.690;2024-02-28T00:01:58;100394.72;;;4.62;100.00
78888;BME280;68276;49.326;8.690;2024-02-28T00:04:24;100395.59;;;4.53;100.00
78888;BME280;68276;49.326;8.690;2024-02-28T00:06:50;100403.56;;;4.53;100.00
78888;BME280;68276;49.326;8.690;2024-02-28T00:09:15;100397.66;;;4.59;100.00
78888;BME280;68276;49.326;8.690;2024-02-28T00:11:45;100396.09;;;4.66;100.00
78888;BME280;68276;49.326;8.690;2024-02-28T00:14:12;100391.91;;;4.63;100.00
78888;BME280;68276;49.326;8.690;2024-02-28T00:16:41;100392.47;;;4.67;100.00
78888;BME280;68276;49.326;8.690;2024-02-28T00:19:07;100391.06;;;4.63;100.00
78888;BME280;68276;49.326;8.690;2024-02-28T00:21:33;100398.34;;;4.61;100.00
78888;BME280;68276;49.326;8.690;2024-02-28T00:23:58;100392.75;;;4.64;100.00
78888;BME280;68276;49.326;8.690;2024-02-28T00:26:25;100387.72;;;4.61;100.00
78888;BME280;68276;49.326;8.690;2024-02-28T00:28:50;100401.16;;;4.59;100.00
78888;BME280;68276;49.326;8.690;2024-02-28T00:31:16;100399.09;;;4.53;100.00
78888;BME280;68276;49.326;8.690;2024-02-28T00:33:41;100410.44;;;4.46;100.00
78888;BME280;68276;49.326;8.690;2024-02-28T00:36:06;100411.31;;;4.46;100.00
78888;BME280;68276;49.326;8.690;2024-02-28T00:38:32;100417.31;;;4.39;100.00
78888;BME280;68276;49.326;8.690;2024-02-28T00:40:57;100412.72;;;4.31;100.00
78888;BME280;68276;49.326;8.690;2024-02-28T00:43:22;100401.81;;;4.25;100.00
78888;BME280;68276;49.326;8.690;2024-02-28T00:45:48;100410.06;;;4.31;100.00
78888;BME280;68276;49.326;8.690;2024-02-28T00:48:14;100418.88;;;4.32;100.00
78888;BME280;68276;49.326;8.690;2024-02-28T00:50:39;100417.38;;;4.20;100.00
78888;BME280;68276;49.326;8.690;2024-02-28T00:53:04;100408.41;;;4.21;100.00
78888;BME280;68276;49.326;8.690;2024-02-28T00:55:30;100416.38;;;4.21;100.00
78888;BME280;68276;49.326;8.690;2024-02-28T00:57:55;100411.06;;;4.21;100.00
78888;BME280;68276;49.326;8.690;2024-02-28T01:00:21;100426.59;;;4.25;100.00
78888;BME280;68276;49.326;8.690;2024-02-28T01:02:46;100408.00;;;4.25;100.00
78888;BME280;68276;49.326;8.690;2024-02-28T01:05:11;100410.09;;;4.22;100.00
78888;BME280;68276;49.326;8.690;2024-02-28T01:07:37;100411.06;;;4.21;100.00
78888;BME280;68276;49.326;8.690;2024-02-28T01:10:03;100412.91;;;4.20;100.00
78888;BME280;68276;49.326;8.690;2024-02-28T01:12:29;100407.72;;;4.19;100.00
78888;BME280;68276;49.326;8.690;2024-02-28T01:14:54;100415.16;;;4.15;100.00
78888;BME280;68276;49.326;8.690;2024-02-28T01:17:19;100411.78;;;4.13;100.00
78888;BME280;68276;49.326;8.690;2024-02-28T01:19:45;100413.19;;;4.08;100.00
78888;BME280;68276;49.326;8.690;2024-02-28T01:22:10;100409.28;;;4.02;100.00
78888;BME280;68276;49.326;8.690;2024-02-28T01:24:36;100417.94;;;4.04;100.00
78888;BME280;68276;49.326;8.690;2024-02-28T01:27:02;100416.16;;;4.05;100.00
78888;BME280;68276;49.326;8.690;2024-02-28T01:29:28;100422.31;;;3.96;100.00
78888;BME280;68276;49.326;8.690;2024-02-28T01:31:55;100424.13;;;3.86;100.00
78888;BME280;68276;49.326;8.690;2024-02-28T01:34:21;100424.84;;;3.88;100.00
78888;BME280;68276;49.326;8.690;2024-02-28T01:36:46;100426.22;;;3.92;100.00
78888;BME280;68276;49.326;8.690;2024-02-28T01:39:12;100429.84;;;3.91;100.00
78888;BME280;68276;49.326;8.690;2024-02-28T01:41:37;100435.56;;;3.86;100.00
78888;BME280;68276;49.326;8.690;2024-02-28T01:44:02;100432.25;;;3.84;100.00
78888;BME280;68276;49.326;8.690;2024-02-28T01:46:29;100430.69;;;3.82;100.00
78888;BME280;68276;49.326;8.690;2024-02-28T01:48:55;100431.84;;;3.79;100.00
78888;BME280;68276;49.326;8.690;2024-02-28T01:51:22;100439.66;;;3.81;100.00
78888;BME280;68276;49.326;8.690;2024-02-28T01:53:50;100431.94;;;3.78;100.00
78888;BME280;68276;49.326;8.690;2024-02-28T01:56:16;100443.69;;;3.66;100.00
78888;BME280;68276;49.326;8.690;2024-02-28T01:58:46;100440.88;;;3.58;100.00
78888;BME280;68276;49.326;8.690;2024-02-28T02:01:16;100444.94;;;3.52;100.00
78888;BME280;68276;49.326;8.690;2024-02-28T02:03:43;100441.88;;;3.57;100.00
78888;BME280;68276;49.326;8.690;2024-02-28T02:06:08;100437.53;;;3.56;100.00
78888;BME280;68276;49.326;8.690;2024-02-28T02:08:34;100448.44;;;3.53;100.00
78888;BME280;68276;49.326;8.690;2024-02-28T02:11:01;100449.53;;;3.50;100.00
78888;BME280;68276;49.326;8.690;2024-02-28T02:13:27;100443.94;;;3.43;100.00
78888;BME280;68276;49.326;8.690;2024-02-28T02:15:52;100436.97;;;3.42;100.00
78888;BME280;68276;49.326;8.690;2024-02-28T02:18:17;100446.19;;;3.38;100.00
78888;BME280;68276;49.326;8.690;2024-02-28T02:20:46;100459.31;;;3.30;100.00
78888;BME280;68276;49.326;8.690;2024-02-28T02:23:14;100453.81;;;3.22;100.00
78888;BME280;68276;49.326;8.690;2024-02-28T02:25:44;100456.59;;;3.21;100.00
78888;BME280;68276;49.326;8.690;2024-02-28T02:28:10;100463.56;;;3.12;100.00
78888;BME280;68276;49.326;8.690;2024-02-28T02:30:35;100467.78;;;3.15;100.00
78888;BME280;68276;49.326;8.690;2024-02-28T02:33:00;100467.22;;;3.11;100.00
78888;BME280;68276;49.326;8.690;2024-02-28T02:35:26;100464.94;;;3.07;100.00
78888;BME280;68276;49.326;8.690;2024-02-28T02:37:51;100470.81;;;3.01;100.00
78888;BME280;68276;49.326;8.690;2024-02-28T02:40:16;100475.81;;;2.94;100.00
78888;BME280;68276;49.326;8.690;2024-02-28T02:42:42;100469.94;;;3.00;100.00
78888;BME280;68276;49.326;8.690;2024-02-28T02:45:08;100474.75;;;3.06;100.00
78888;BME280;68276;49.326;8.690;2024-02-28T02:47:33;100487.72;;;3.09;100.00
78888;BME280;68276;49.326;8.690;2024-02-28T02:49:59;100476.09;;;3.01;100.00
78888;BME280;68276;49.326;8.690;2024-02-28T02:52:24;100481.69;;;2.98;100.00
78888;BME280;68276;49.326;8.690;2024-02-28T02:54:49;100497.34;;;3.01;100.00
78888;BME280;68276;49.326;8.690;2024-02-28T02:57:15;100488.50;;;2.91;100.00
78888;BME280;68276;49.326;8.690;2024-02-28T02:59:40;100498.97;;;2.92;100.00
78888;BME280;68276;49.326;8.690;2024-02-28T03:02:06;100496.19;;;2.94;100.00
78888;BME280;68276;49.326;8.690;2024-02-28T03:04:31;100501.63;;;2.92;100.00
78888;BME280;68276;49.326;8.690;2024-02-28T03:06:56;100500.66;;;2.93;100.00
78888;BME280;68276;49.326;8.690;2024-02-28T03:09:22;100499.56;;;2.96;100.00
78888;BME280;68276;49.326;8.690;2024-02-28T03:11:47;100497.03;;;2.94;100.00
78888;BME280;68276;49.326;8.690;2024-02-28T03:14:13;100505.00;;;2.94;100.00
78888;BME280;68276;49.326;8.690;2024-02-28T03:16:42;100506.81;;;2.94;100.00
78888;BME280;68276;49.326;8.690;2024-02-28T03:19:07;100511.53;;;2.90;100.00
78888;BME280;68276;49.326;8.690;2024-02-28T03:21:33;100508.44;;;2.85;100.00
78888;BME280;68276;49.326;8.690;2024-02-28T03:23:58;100517.03;;;2.78;100.00
78888;BME280;68276;49.326;8.690;2024-02-28T03:26:23;100509.50;;;2.73;100.00
78888;BME280;68276;49.326;8.690;2024-02-28T03:28:49;100512.00;;;2.75;100.00
78888;BME280;68276;49.326;8.690;2024-02-28T03:31:14;100518.47;;;2.82;100.00
78888;BME280;68276;49.326;8.690;2024-02-28T03:33:40;100514.56;;;2.86;100.00
78888;BME280;68276;49.326;8.690;2024-02-28T03:36:05;100521.84;;;2.84;100.00
78888;BME280;68276;49.326;8.690;2024-02-28T03:38:31;100529.78;;;2.84;100.00
78888;BME280;68276;49.326;8.690;2024-02-28T03:40:56;100523.56;;;2.94;100.00
78888;BME280;68276;49.326;8.690;2024-02-28T03:43:22;100530.25;;;2.89;100.00
78888;BME280;68276;49.326;8.690;2024-02-28T03:45:47;100529.91;;;2.82;100.00
78888;BME280;68276;49.326;8.690;2024-02-28T03:48:14;100539.97;;;2.79;100.00
78888;BME280;68276;49.326;8.690;2024-02-28T03:50:39;100543.56;;;2.78;100.00
78888;BME280;68276;49.326;8.690;2024-02-28T03:53:04;100541.63;;;2.80;100.00
78888;BME280;68276;49.326;8.690;2024-02-28T03:55:30;100549.72;;;2.78;100.00
78888;BME280;68276;49.326;8.690;2024-02-28T03:57:56;100553.03;;;2.71;100.00
78888;BME280;68276;49.326;8.690;2024-02-28T04:00:21;100551.94;;;2.73;100.00
78888;BME280;68276;49.326;8.690;2024-02-28T04:02:46;100544.22;;;2.70;100.00
78888;BME280;68276;49.326;8.690;2024-02-28T04:05:12;100542.38;;;2.61;100.00
78888;BME280;68276;49.326;8.690;2024-02-28T04:07:37;100556.84;;;2.57;100.00
78888;BME280;68276;49.326;8.690;2024-02-28T04:10:03;100548.88;;;2.57;100.00
78888;BME280;68276;49.326;8.690;2024-02-28T04:12:30;100568.44;;;2.56;100.00
78888;BME280;68276;49.326;8.690;2024-02-28T04:14:56;100569.97;;;2.59;100.00
78888;BME280;68276;49.326;8.690;2024-02-28T04:17:21;100577.78;;;2.60;100.00
78888;BME280;68276;49.326;8.690;2024-02-28T04:19:47;100576.97;;;2.60;100.00
78888;BME280;68276;49.326;8.690;2024-02-28T04:22:12;100577.06;;;2.58;100.00
78888;BME280;68276;49.326;8.690;2024-02-28T04:24:37;100581.69;;;2.56;100.00
78888;BME280;68276;49.326;8.690;2024-02-28T04:27:03;100584.44;;;2.55;100.00
78888;BME280;68276;49.326;8.690;2024-02-28T04:29:30;100583.31;;;2.48;100.00
78888;BME280;68276;49.326;8.690;2024-02-28T04:31:56;100574.63;;;2.46;100.00
78888;BME280;68276;49.326;8.690;2024-02-28T04:34:21;100588.97;;;2.43;100.00
78888;BME280;68276;49.326;8.690;2024-02-28T04:36:47;100584.66;;;2.42;100.00
78888;BME280;68276;49.326;8.690;2024-02-28T04:39:12;100589.09;;;2.42;100.00
78888;BME280;68276;49.326;8.690;2024-02-28T04:41:37;100584.69;;;2.31;100.00
78888;BME280;68276;49.326;8.690;2024-02-28T04:44:03;100587.00;;;2.24;100.00
78888;BME280;68276;49.326;8.690;2024-02-28T04:46:28;100593.50;;;2.20;100.00
78888;BME280;68276;49.326;8.690;2024-02-28T04:48:54;100595.22;;;2.21;100.00
78888;BME280;68276;49.326;8.690;2024-02-28T04:51:19;100586.16;;;2.24;100.00
78888;BME280;68276;49.326;8.690;2024-02-28T04:53:44;100588.94;;;2.22;100.00
78888;BME280;68276;49.326;8.690;2024-02-28T04:56:10;100586.88;;;2.26;100.00
78888;BME280;68276;49.326;8.690;2024-02-28T04:58:36;100595.28;;;2.31;100.00
78888;BME280;68276;49.326;8.690;2024-02-28T05:01:01;100585.53;;;2.31;100.00
78888;BME280;68276;49.326;8.690;2024-02-28T05:03:28;100580.84;;;2.24;100.00
78888;BME280;68276;49.326;8.690;2024-02-28T05:05:53;100583.97;;;2.29;100.00
78888;BME280;68276;49.326;8.690;2024-02-28T05:08:19;100597.69;;;2.34;100.00
78888;BME280;68276;49.326;8.690;2024-02-28T05:10:45;100601.91;;;2.37;100.00
78888;BME280;68276;49.326;8.690;2024-02-28T05:13:10;100606.69;;;2.43;100.00
78888;BME280;68276;49.326;8.690;2024-02-28T05:15:36;100605.19;;;2.50;100.00
78888;BME280;68276;49.326;8.690;2024-02-28T05:18:01;100612.25;;;2.60;100.00
78888;BME280;68276;49.326;8.690;2024-02-28T05:20:27;100614.69;;;2.63;100.00
78888;BME280;68276;49.326;8.690;2024-02-28T05:22:52;100619.31;;;2.50;100.00
78888;BME280;68276;49.326;8.690;2024-02-28T05:25:18;100635.75;;;2.44;100.00
78888;BME280;68276;49.326;8.690;2024-02-28T05:27:43;100639.28;;;2.33;100.00
78888;BME280;68276;49.326;8.690;2024-02-28T05:30:09;100651.97;;;2.08;100.00
78888;BME280;68276;49.326;8.690;2024-02-28T05:32:35;100653.72;;;1.76;100.00
78888;BME280;68276;49.326;8.690;2024-02-28T05:35:00;100658.88;;;1.66;100.00
78888;BME280;68276;49.326;8.690;2024-02-28T05:37:26;100662.03;;;1.60;100.00
78888;BME280;68276;49.326;8.690;2024-02-28T05:39:51;100664.66;;;1.60;100.00
78888;BME280;68276;49.326;8.690;2024-02-28T05:42:17;100661.16;;;1.60;100.00
78888;BME280;68276;49.326;8.690;2024-02-28T05:44:48;100658.53;;;1.60;100.00
78888;BME280;68276;49.326;8.690;2024-02-28T05:47:13;100664.69;;;1.71;100.00
78888;BME280;68276;49.326;8.690;2024-02-28T05:49:39;100664.31;;;1.76;100.00
78888;BME280;68276;49.326;8.690;2024-02-28T05:52:05;100661.19;;;1.82;100.00
78888;BME280;68276;49.326;8.690;2024-02-28T05:54:30;100664.41;;;1.85;100.00
78888;BME280;68276;49.326;8.690;2024-02-28T05:56:56;100648.28;;;1.88;100.00
78888;BME280;68276;49.326;8.690;2024-02-28T05:59:21;100649.84;;;1.91;100.00
78888;BME280;68276;49.326;8.690;2024-02-28T06:01:47;100659.34;;;1.93;100.00
78888;BME280;68276;49.326;8.690;2024-02-28T06:04:12;100671.50;;;1.96;100.00
78888;BME280;68276;49.326;8.690;2024-02-28T06:06:38;100671.38;;;2.08;100.00
78888;BME280;68276;49.326;8.690;2024-02-28T06:09:03;100682.69;;;2.21;100.00
78888;BME280;68276;49.326;8.690;2024-02-28T06:11:29;100690.00;;;2.29;100.00
78888;BME280;68276;49.326;8.690;2024-02-28T06:13:54;100695.16;;;2.42;100.00
78888;BME280;68276;49.326;8.690;2024-02-28T06:16:20;100695.75;;;2.45;100.00
78888;BME280;68276;49.326;8.690;2024-02-28T06:18:45;100703.41;;;2.59;100.00
78888;BME280;68276;49.326;8.690;2024-02-28T06:21:11;100708.72;;;2.59;100.00
78888;BME280;68276;49.326;8.690;2024-02-28T06:23:36;100700.63;;;2.61;100.00
78888;BME280;68276;49.326;8.690;2024-02-28T06:26:02;100712.56;;;2.55;100.00
78888;BME280;68276;49.326;8.690;2024-02-28T06:28:27;100718.72;;;2.56;100.00
78888;BME280;68276;49.326;8.690;2024-02-28T06:30:52;100718.53;;;2.48;100.00
78888;BME280;68276;49.326;8.690;2024-02-28T06:33:18;100721.19;;;2.48;100.00
78888;BME280;68276;49.326;8.690;2024-02-28T06:35:44;100719.03;;;2.30;100.00
78888;BME280;68276;49.326;8.690;2024-02-28T06:38:09;100716.88;;;2.24;100.00
78888;BME280;68276;49.326;8.690;2024-02-28T06:40:35;100711.91;;;2.31;100.00
78888;BME280;68276;49.326;8.690;2024-02-28T06:43:01;100710.72;;;2.24;100.00
78888;BME280;68276;49.326;8.690;2024-02-28T06:45:27;100713.13;;;2.27;100.00
78888;BME280;68276;49.326;8.690;2024-02-28T06:47:52;100716.16;;;2.33;100.00
78888;BME280;68276;49.326;8.690;2024-02-28T06:50:18;100722.72;;;2.39;100.00
78888;BME280;68276;49.326;8.690;2024-02-28T06:52:43;100722.50;;;2.42;100.00
78888;BME280;68276;49.326;8.690;2024-02-28T06:55:09;100724.19;;;2.43;100.00
78888;BME280;68276;49.326;8.690;2024-02-28T06:57:40;100727.09;;;2.29;100.00
78888;BME280;68276;49.326;8.690;2024-02-28T07:00:11;100729.75;;;2.29;100.00
78888;BME280;68276;49.326;8.690;2024-02-28T07:02:39;100730.59;;;2.29;100.00
78888;BME280;68276;49.326;8.690;2024-02-28T07:05:05;100732.53;;;2.27;100.00
78888;BME280;68276;49.326;8.690;2024-02-28T07:07:32;100726.28;;;2.28;100.00
78888;BME280;68276;49.326;8.690;2024-02-28T07:09:57;100731.31;;;2.31;100.00
78888;BME280;68276;49.326;8.690;2024-02-28T07:12:23;100737.22;;;2.35;100.00
78888;BME280;68276;49.326;8.690;2024-02-28T07:14:49;100734.44;;;2.37;100.00
78888;BME280;68276;49.326;8.690;2024-02-28T07:17:15;100734.44;;;2.37;100.00
78888;BME280;68276;49.326;8.690;2024-02-28T07:19:40;100744.44;;;2.33;100.00
78888;BME280;68276;49.326;8.690;2024-02-28T07:22:06;100750.09;;;2.40;100.00
78888;BME280;68276;49.326;8.690;2024-02-28T07:24:31;100751.16;;;2.48;100.00
78888;BME280;68276;49.326;8.690;2024-02-28T07:26:57;100753.00;;;2.48;100.00
78888;BME280;68276;49.326;8.690;2024-02-28T07:29:23;100754.06;;;2.45;100.00
78888;BME280;68276;49.326;8.690;2024-02-28T07:31:49;100768.25;;;2.55;100.00
78888;BME280;68276;49.326;8.690;2024-02-28T07:34:15;100762.34;;;2.63;100.00
78888;BME280;68276;49.326;8.690;2024-02-28T07:36:40;100763.22;;;2.63;100.00
78888;BME280;68276;49.326;8.690;2024-02-28T07:39:06;100755.13;;;2.65;100.00
78888;BME280;68276;49.326;8.690;2024-02-28T07:41:31;100761.22;;;2.76;100.00
78888;BME280;68276;49.326;8.690;2024-02-28T07:43:57;100766.53;;;2.76;100.00
78888;BME280;68276;49.326;8.690;2024-02-28T07:46:23;100779.31;;;2.71;100.00
78888;BME280;68276;49.326;8.690;2024-02-28T07:48:48;100776.34;;;2.96;100.00
78888;BME280;68276;49.326;8.690;2024-02-28T07:51:13;100772.03;;;3.78;100.00
78888;BME280;68276;49.326;8.690;2024-02-28T07:53:40;100765.19;;;4.05;100.00
78888;BME280;68276;49.326;8.690;2024-02-28T07:56:06;100758.66;;;3.79;100.00
78888;BME280;68276;49.326;8.690;2024-02-28T07:58:31;100764.88;;;3.69;100.00
78888;BME280;68276;49.326;8.690;2024-02-28T08:00:57;100765.53;;;3.61;100.00
78888;BME280;68276;49.326;8.690;2024-02-28T08:03:22;100777.81;;;3.62;100.00
78888;BME280;68276;49.326;8.690;2024-02-28T08:05:48;100770.19;;;3.69;100.00
78888;BME280;68276;49.326;8.690;2024-02-28T08:08:14;100776.66;;;3.76;100.00
78888;BME280;68276;49.326;8.690;2024-02-28T08:10:40;100764.00;;;3.89;100.00
78888;BME280;68276;49.326;8.690;2024-02-28T08:13:05;100766.53;;;3.90;100.00
78888;BME280;68276;49.326;8.690;2024-02-28T08:15:31;100758.03;;;3.96;100.00
78888;BME280;68276;49.326;8.690;2024-02-28T08:17:57;100761.28;;;4.00;100.00
78888;BME280;68276;49.326;8.690;2024-02-28T08:20:23;100766.78;;;4.17;100.00
78888;BME280;68276;49.326;8.690;2024-02-28T08:22:49;100769.75;;;4.24;100.00
78888;BME280;68276;49.326;8.690;2024-02-28T08:25:14;100771.78;;;4.41;100.00
78888;BME280;68276;49.326;8.690;2024-02-28T08:27:41;100777.38;;;4.38;100.00
78888;BME280;68276;49.326;8.690;2024-02-28T08:30:06;100778.53;;;4.45;100.00
78888;BME280;68276;49.326;8.690;2024-02-28T08:32:33;100782.56;;;4.49;100.00
78888;BME280;68276;49.326;8.690;2024-02-28T08:34:58;100796.06;;;4.57;100.00
78888;BME280;68276;49.326;8.690;2024-02-28T08:37:24;100788.06;;;4.57;100.00
78888;BME280;68276;49.326;8.690;2024-02-28T08:39:50;100787.66;;;4.71;100.00
78888;BME280;68276;49.326;8.690;2024-02-28T08:42:15;100788.53;;;4.81;100.00
78888;BME280;68276;49.326;8.690;2024-02-28T08:44:41;100796.91;;;4.67;100.00
78888;BME280;68276;49.326;8.690;2024-02-28T08:47:06;100794.13;;;4.68;100.00
78888;BME280;68276;49.326;8.690;2024-02-28T08:49:38;100802.41;;;4.94;100.00
78888;BME280;68276;49.326;8.690;2024-02-28T08:52:04;100808.31;;;4.98;100.00
78888;BME280;68276;49.326;8.690;2024-02-28T08:54:29;100816.91;;;5.11;100.00
78888;BME280;68276;49.326;8.690;2024-02-28T08:56:55;100818.69;;;5.20;100.00
78888;BME280;68276;49.326;8.690;2024-02-28T08:59:20;100821.50;;;5.09;100.00
78888;BME280;68276;49.326;8.690;2024-02-28T09:01:47;100813.50;;;5.18;100.00
78888;BME280;68276;49.326;8.690;2024-02-28T09:04:12;100809.88;;;5.38;100.00
78888;BME280;68276;49.326;8.690;2024-02-28T09:06:38;100810.72;;;5.20;100.00
78888;BME280;68276;49.326;8.690;2024-02-28T09:09:03;100821.25;;;5.31;100.00
78888;BME280;68276;49.326;8.690;2024-02-28T09:11:29;100811.97;;;5.63;100.00
78888;BME280;68276;49.326;8.690;2024-02-28T09:13:54;100813.19;;;5.98;100.00
78888;BME280;68276;49.326;8.690;2024-02-28T09:16:20;100813.63;;;5.64;100.00
78888;BME280;68276;49.326;8.690;2024-02-28T09:18:45;100824.16;;;5.75;100.00
78888;BME280;68276;49.326;8.690;2024-02-28T09:21:10;100834.41;;;5.80;100.00
78888;BME280;68276;49.326;8.690;2024-02-28T09:23:36;100843.81;;;5.94;100.00
78888;BME280;68276;49.326;8.690;2024-02-28T09:26:05;100850.50;;;6.07;100.00
78888;BME280;68276;49.326;8.690;2024-02-28T09:28:31;100850.81;;;5.75;100.00
78888;BME280;68276;49.326;8.690;2024-02-28T09:30:56;100851.78;;;5.65;100.00
78888;BME280;68276;49.326;8.690;2024-02-28T09:33:22;100847.31;;;5.85;100.00
78888;BME280;68276;49.326;8.690;2024-02-28T09:35:48;100858.00;;;5.85;100.00
78888;BME280;68276;49.326;8.690;2024-02-28T09:38:13;100855.56;;;6.10;100.00
78888;BME280;68276;49.326;8.690;2024-02-28T09:40:38;100854.03;;;6.08;100.00
78888;BME280;68276;49.326;8.690;2024-02-28T09:43:04;100849.66;;;6.16;100.00
78888;BME280;68276;49.326;8.690;2024-02-28T09:45:30;100852.13;;;6.27;98.84
78888;BME280;68276;49.326;8.690;2024-02-28T09:48:00;100845.84;;;6.19;100.00
78888;BME280;68276;49.326;8.690;2024-02-28T09:50:26;100847.34;;;6.31;99.82
78888;BME280;68276;49.326;8.690;2024-02-28T09:52:52;100846.97;;;6.53;96.99
78888;BME280;68276;49.326;8.690;2024-02-28T09:55:18;100853.13;;;6.63;95.37
78888;BME280;68276;49.326;8.690;2024-02-28T09:57:47;100849.78;;;6.51;95.42
78888;BME280;68276;49.326;8.690;2024-02-28T10:00:13;100858.66;;;6.79;94.91
78888;BME280;68276;49.326;8.690;2024-02-28T10:02:41;100870.09;;;6.98;93.01
78888;BME280;68276;49.326;8.690;2024-02-28T10:05:08;100870.72;;;6.83;93.99
78888;BME280;68276;49.326;8.690;2024-02-28T10:07:34;100870.69;;;6.92;93.14
78888;BME280;68276;49.326;8.690;2024-02-28T10:10:00;100877.25;;;6.71;94.36
78888;BME280;68276;49.326;8.690;2024-02-28T10:12:25;100881.47;;;6.73;94.11
78888;BME280;68276;49.326;8.690;2024-02-28T10:14:51;100882.19;;;6.66;94.68
78888;BME280;68276;49.326;8.690;2024-02-28T10:17:16;100885.16;;;6.63;94.74
78888;BME280;68276;49.326;8.690;2024-02-28T10:19:42;100888.19;;;6.77;93.33
78888;BME280;68276;49.326;8.690;2024-02-28T10:22:07;100887.66;;;7.01;91.14
78888;BME280;68276;49.326;8.690;2024-02-28T10:24:34;100891.78;;;6.86;92.17
78888;BME280;68276;49.326;8.690;2024-02-28T10:27:01;100900.16;;;7.01;91.65
78888;BME280;68276;49.326;8.690;2024-02-28T10:29:27;100895.63;;;6.83;91.89
78888;BME280;68276;49.326;8.690;2024-02-28T10:31:58;100898.34;;;7.01;91.55
78888;BME280;68276;49.326;8.690;2024-02-28T10:34:24;100897.09;;;6.95;91.32
78888;BME280;68276;49.326;8.690;2024-02-28T10:36:50;100892.09;;;6.83;91.49
78888;BME280;68276;49.326;8.690;2024-02-28T10:39:15;100895.13;;;7.15;90.54
78888;BME280;68276;49.326;8.690;2024-02-28T10:41:42;100895.84;;;7.17;89.04
78888;BME280;68276;49.326;8.690;2024-02-28T10:44:09;100892.19;;;7.18;88.56
78888;BME280;68276;49.326;8.690;2024-02-28T10:46:37;100893.44;;;7.41;88.92
78888;BME280;68276;49.326;8.690;2024-02-28T10:49:04;100884.13;;;7.63;86.64
78888;BME280;68276;49.326;8.690;2024-02-28T10:51:34;100885.72;;;7.56;86.76
78888;BME280;68276;49.326;8.690;2024-02-28T10:54:10;100889.94;;;7.58;86.54
78888;BME280;68276;49.326;8.690;2024-02-28T10:56:37;100895.53;;;7.65;86.01
78888;BME280;68276;49.326;8.690;2024-02-28T10:59:06;100892.91;;;7.90;85.38
78888;BME280;68276;49.326;8.690;2024-02-28T11:01:32;100891.47;;;7.78;84.19
78888;BME280;68276;49.326;8.690;2024-02-28T11:03:57;100893.75;;;7.73;83.99
78888;BME280;68276;49.326;8.690;2024-02-28T11:06:23;100887.00;;;8.04;83.36
78888;BME280;68276;49.326;8.690;2024-02-28T11:08:49;100889.81;;;8.21;82.11
78888;BME280;68276;49.326;8.690;2024-02-28T11:11:18;100903.38;;;8.45;80.11
78888;BME280;68276;49.326;8.690;2024-02-28T11:13:56;100902.47;;;8.62;78.39
78888;BME280;68276;49.326;8.690;2024-02-28T11:16:35;100903.72;;;8.75;78.85
78888;BME280;68276;49.326;8.690;2024-02-28T11:19:02;100910.31;;;8.89;78.86
78888;BME280;68276;49.326;8.690;2024-02-28T11:21:29;100901.59;;;8.87;78.39
78888;BME280;68276;49.326;8.690;2024-02-28T11:23:59;100902.00;;;9.08;78.36
78888;BME280;68276;49.326;8.690;2024-02-28T11:26:24;100897.44;;;8.92;78.26
78888;BME280;68276;49.326;8.690;2024-02-28T11:28:51;100901.28;;;8.90;77.21
78888;BME280;68276;49.326;8.690;2024-02-28T11:31:16;100905.72;;;9.15;76.24
78888;BME280;68276;49.326;8.690;2024-02-28T11:33:43;100896.03;;;9.22;76.79
78888;BME280;68276;49.326;8.690;2024-02-28T11:36:11;100898.38;;;9.17;76.32
78888;BME280;68276;49.326;8.690;2024-02-28T11:38:38;100890.72;;;9.46;74.47
78888;BME280;68276;49.326;8.690;2024-02-28T11:41:04;100891.47;;;9.06;76.43
78888;BME280;68276;49.326;8.690;2024-02-28T11:43:33;100893.84;;;9.17;75.84
78888;BME280;68276;49.326;8.690;2024-02-28T11:46:11;100884.72;;;9.68;74.82
78888;BME280;68276;49.326;8.690;2024-02-28T11:48:36;100870.16;;;9.79;73.09
78888;BME280;68276;49.326;8.690;2024-02-28T11:51:02;100876.97;;;9.49;74.12
78888;BME280;68276;49.326;8.690;2024-02-28T11:53:27;100868.88;;;9.17;74.65
78888;BME280;68276;49.326;8.690;2024-02-28T11:55:53;100873.44;;;9.41;73.94
78888;BME280;68276;49.326;8.690;2024-02-28T11:58:21;100873.63;;;9.31;73.53
78888;BME280;68276;49.326;8.690;2024-02-28T12:00:48;100872.94;;;9.21;73.83
78888;BME280;68276;49.326;8.690;2024-02-28T12:03:13;100867.47;;;9.71;72.63
78888;BME280;68276;49.326;8.690;2024-02-28T12:05:42;100870.00;;;9.64;73.40
78888;BME280;68276;49.326;8.690;2024-02-28T12:08:08;100855.53;;;9.73;73.55
78888;BME280;68276;49.326;8.690;2024-02-28T12:10:35;100849.19;;;9.90;72.44
78888;BME280;68276;49.326;8.690;2024-02-28T12:13:01;100850.53;;;9.70;72.73
78888;BME280;68276;49.326;8.690;2024-02-28T12:15:29;100855.22;;;9.68;73.50
78888;BME280;68276;49.326;8.690;2024-02-28T12:17:55;100848.03;;;9.85;73.00
78888;BME280;68276;49.326;8.690;2024-02-28T12:20:23;100843.97;;;10.05;71.67
78888;BME280;68276;49.326;8.690;2024-02-28T12:22:48;100837.97;;;10.11;70.90
78888;BME280;68276;49.326;8.690;2024-02-28T12:25:14;100837.81;;;10.12;70.74
78888;BME280;68276;49.326;8.690;2024-02-28T12:27:40;100831.72;;;10.34;69.75
78888;BME280;68276;49.326;8.690;2024-02-28T12:30:07;100829.72;;;10.20;70.36
78888;BME280;68276;49.326;8.690;2024-02-28T12:32:32;100827.72;;;9.98;71.89
78888;BME280;68276;49.326;8.690;2024-02-28T12:34:58;100825.69;;;9.92;70.83
78888;BME280;68276;49.326;8.690;2024-02-28T12:37:23;100815.97;;;10.15;70.38
78888;BME280;68276;49.326;8.690;2024-02-28T12:39:49;100813.69;;;10.51;69.51
78888;BME280;68276;49.326;8.690;2024-02-28T12:42:16;100812.81;;;10.59;68.76
78888;BME280;68276;49.326;8.690;2024-02-28T12:44:43;100815.75;;;10.80;69.26
78888;BME280;68276;49.326;8.690;2024-02-28T12:47:12;100801.59;;;10.94;67.71